createdAt,value
2023-02-03T00:00:32.087Z,96576
2023-02-03T00:01:39.761Z,96567
2023-02-03T00:02:48.432Z,96566
2023-02-03T00:03:58.954Z,96571
2023-02-03T00:05:07.628Z,96569
2023-02-03T00:06:16.276Z,96575
2023-02-03T00:07:25.948Z,96570
2023-02-03T00:08:34.599Z,96570
2023-02-03T00:09:45.272Z,96582
2023-02-03T00:10:53.927Z,96570
2023-02-03T00:12:03.574Z,96589
2023-02-03T00:13:13.279Z,96573
2023-02-03T00:14:21.978Z,96578
2023-02-03T00:15:31.689Z,96574
2023-02-03T00:16:41.401Z,96594
2023-02-03T00:17:50.988Z,96577
2023-02-03T00:19:00.675Z,96588
2023-02-03T00:20:08.333Z,96574
2023-02-03T00:21:18.015Z,96581
2023-02-03T00:22:27.693Z,96574
2023-02-03T00:23:35.339Z,96576
2023-02-03T00:24:45.018Z,96598
2023-02-03T00:25:54.660Z,96572
2023-02-03T00:27:03.336Z,96581
2023-02-03T00:28:13.041Z,96580
2023-02-03T00:29:21.674Z,96571
2023-02-03T00:30:30.323Z,96569
2023-02-03T00:31:40.142Z,96583
2023-02-03T00:32:48.716Z,96571
2023-02-03T00:33:57.374Z,96569
2023-02-03T00:35:07.056Z,96573
2023-02-03T00:36:15.714Z,96580
2023-02-03T00:37:26.364Z,96562
2023-02-03T00:38:34.092Z,96569
2023-02-03T00:39:42.752Z,96567
2023-02-03T00:40:52.446Z,96554
2023-02-03T00:42:01.108Z,96559
2023-02-03T00:43:09.761Z,96562
2023-02-03T00:44:19.452Z,96559
2023-02-03T00:45:28.149Z,96560
2023-02-03T00:46:37.814Z,96562
2023-02-03T00:47:45.515Z,96566
2023-02-03T00:48:54.143Z,96583
2023-02-03T00:50:03.831Z,96557
2023-02-03T00:51:12.493Z,96579
2023-02-03T00:52:21.150Z,96560
2023-02-03T00:53:30.820Z,96567
2023-02-03T00:54:39.485Z,96562
2023-02-03T00:55:48.436Z,96568
2023-02-03T00:56:58.197Z,96554
2023-02-03T00:58:06.835Z,96568
2023-02-03T00:59:15.490Z,96594
2023-02-03T01:00:24.623Z,96584
2023-02-03T01:01:33.889Z,96573
2023-02-03T01:02:43.552Z,96583
2023-02-03T01:03:51.190Z,96580
2023-02-03T01:04:59.847Z,96577
2023-02-03T01:06:09.506Z,96578
2023-02-03T01:07:19.187Z,96578
2023-02-03T01:08:28.857Z,96584
2023-02-03T01:09:38.541Z,96580
2023-02-03T01:10:47.183Z,96583
2023-02-03T01:11:56.839Z,96584
2023-02-03T01:13:04.532Z,96580
2023-02-03T01:14:13.182Z,96582
2023-02-03T01:15:22.875Z,96583
2023-02-03T01:16:31.656Z,96577
2023-02-03T01:17:40.197Z,96579
2023-02-03T01:18:49.883Z,96590
2023-02-03T01:19:58.571Z,96590
2023-02-03T01:21:08.256Z,96590
2023-02-03T01:22:16.913Z,96589
2023-02-03T01:23:26.570Z,96583
2023-02-03T01:24:36.263Z,96578
2023-02-03T01:25:44.934Z,96587
2023-02-03T01:26:54.598Z,96581
2023-02-03T01:28:04.325Z,96581
2023-02-03T01:29:12.911Z,96580
2023-02-03T01:30:22.628Z,96584
2023-02-03T01:31:30.499Z,96585
2023-02-03T01:32:39.916Z,96575
2023-02-03T01:33:49.589Z,96575
2023-02-03T01:34:58.289Z,96571
2023-02-03T01:36:08.085Z,96573
2023-02-03T01:37:17.711Z,96557
2023-02-03T01:38:26.386Z,96568
2023-02-03T01:39:36.068Z,96571
2023-02-03T01:40:45.726Z,96564
2023-02-03T01:41:54.448Z,96572
2023-02-03T01:43:04.087Z,96566
2023-02-03T01:44:12.742Z,96565
2023-02-03T01:45:21.396Z,96568
2023-02-03T01:46:30.133Z,96553
2023-02-03T01:47:38.779Z,96568
2023-02-03T01:48:47.437Z,96560
2023-02-03T01:49:55.109Z,96559
2023-02-03T01:51:03.810Z,96561
2023-02-03T01:52:13.489Z,96559
2023-02-03T01:53:23.161Z,96562
2023-02-03T01:54:32.846Z,96559
2023-02-03T01:55:41.526Z,96560
2023-02-03T01:56:51.263Z,96574
2023-02-03T01:58:00.994Z,96555
2023-02-03T01:59:08.725Z,96550
2023-02-03T02:00:18.388Z,96554
2023-02-03T02:01:28.057Z,96562
2023-02-03T02:02:36.809Z,96558
2023-02-03T02:03:45.416Z,96544
2023-02-03T02:04:55.099Z,96544
2023-02-03T02:06:03.763Z,96546
2023-02-03T02:07:13.423Z,96536
2023-02-03T02:08:21.096Z,96546
2023-02-03T02:09:30.740Z,96551
2023-02-03T02:10:40.419Z,96541
2023-02-03T02:11:50.090Z,96537
2023-02-03T02:12:59.742Z,96539
2023-02-03T02:14:09.409Z,96547
2023-02-03T02:15:18.050Z,96547
2023-02-03T02:16:27.742Z,96547
2023-02-03T02:17:36.397Z,96541
2023-02-03T02:18:45.046Z,96546
2023-02-03T02:19:54.737Z,96557
2023-02-03T02:21:03.422Z,96560
2023-02-03T02:22:12.173Z,96573
2023-02-03T02:23:20.876Z,96562
2023-02-03T02:24:28.527Z,96559
2023-02-03T02:25:38.166Z,96557
2023-02-03T02:26:45.818Z,96552
2023-02-03T02:27:54.525Z,96549
2023-02-03T02:29:04.169Z,96547
2023-02-03T02:30:12.877Z,96556
2023-02-03T02:31:21.636Z,96549
2023-02-03T02:32:29.247Z,96545
2023-02-03T02:33:37.896Z,96542
2023-02-03T02:34:47.599Z,96553
2023-02-03T02:35:56.266Z,96552
2023-02-03T02:37:04.901Z,96565
2023-02-03T02:38:14.570Z,96558
2023-02-03T02:39:23.244Z,96562
2023-02-03T02:40:32.916Z,96564
2023-02-03T02:41:42.565Z,96589
2023-02-03T02:42:51.226Z,96549
2023-02-03T02:44:00.904Z,96550
2023-02-03T02:45:07.628Z,96562
2023-02-03T02:46:16.334Z,96558
2023-02-03T02:47:25.957Z,96559
2023-02-03T02:48:33.625Z,96566
2023-02-03T02:49:43.291Z,96584
2023-02-03T02:50:52.964Z,96561
2023-02-03T02:52:00.633Z,96576
2023-02-03T02:53:09.274Z,96582
2023-02-03T02:54:18.935Z,96576
2023-02-03T02:55:26.583Z,96569
2023-02-03T02:56:36.289Z,96563
2023-02-03T02:57:45.934Z,96573
2023-02-03T02:58:54.591Z,96571
2023-02-03T03:00:04.307Z,96559
2023-02-03T03:01:12.018Z,96561
2023-02-03T03:02:20.669Z,96561
2023-02-03T03:03:30.390Z,96556
2023-02-03T03:04:39.060Z,96564
2023-02-03T03:05:48.701Z,96558
2023-02-03T03:06:57.359Z,96575
2023-02-03T03:08:06.017Z,96558
2023-02-03T03:09:15.682Z,96548
2023-02-03T03:10:25.625Z,96556
2023-02-03T03:11:34.023Z,96552
2023-02-03T03:12:43.717Z,96548
2023-02-03T03:13:52.392Z,96542
2023-02-03T03:15:02.089Z,96555
2023-02-03T03:16:11.779Z,96549
2023-02-03T03:17:20.360Z,96562
2023-02-03T03:18:30.024Z,96547
2023-02-03T03:19:37.688Z,96546
2023-02-03T03:20:46.332Z,96550
2023-02-03T03:21:56.004Z,96568
2023-02-03T03:23:03.664Z,96544
2023-02-03T03:24:12.326Z,96562
2023-02-03T03:25:21.020Z,96564
2023-02-03T03:26:30.673Z,96563
2023-02-03T03:27:40.360Z,96553
2023-02-03T03:28:50.060Z,96561
2023-02-03T03:29:59.302Z,96556
2023-02-03T03:31:09.143Z,96572
2023-02-03T03:32:18.748Z,96563
2023-02-03T03:33:27.414Z,96560
2023-02-03T03:34:37.061Z,96563
2023-02-03T03:35:45.761Z,96557
2023-02-03T03:36:55.446Z,96544
2023-02-03T03:38:04.146Z,96541
2023-02-03T03:39:12.809Z,96529
2023-02-03T03:40:22.499Z,96532
2023-02-03T03:41:31.135Z,96543
2023-02-03T03:42:39.850Z,96527
2023-02-03T03:43:48.492Z,96510
2023-02-03T03:44:57.212Z,96513
2023-02-03T03:46:06.870Z,96516
2023-02-03T03:47:15.511Z,96498
2023-02-03T03:48:25.223Z,96512
2023-02-03T03:49:34.893Z,96507
2023-02-03T03:50:42.587Z,96498
2023-02-03T03:51:52.243Z,96512
2023-02-03T03:53:00.927Z,96500
2023-02-03T03:54:09.597Z,96512
2023-02-03T03:55:18.253Z,96511
2023-02-03T03:56:26.915Z,96516
2023-02-03T03:57:35.561Z,96527
2023-02-03T03:58:45.243Z,96540
2023-02-03T03:59:53.912Z,96528
2023-02-03T04:01:03.694Z,96538
2023-02-03T04:02:13.401Z,96537
2023-02-03T04:03:21.996Z,96544
2023-02-03T04:04:31.576Z,96539
2023-02-03T04:05:40.260Z,96543
2023-02-03T04:06:48.909Z,96562
2023-02-03T04:07:58.559Z,96535
2023-02-03T04:09:06.276Z,96545
2023-02-03T04:10:15.927Z,96527
2023-02-03T04:11:25.626Z,96529
2023-02-03T04:12:35.314Z,96539
2023-02-03T04:13:45.001Z,96536
2023-02-03T04:14:53.652Z,96545
2023-02-03T04:16:03.350Z,96544
2023-02-03T04:17:13.033Z,96537
2023-02-03T04:18:22.674Z,96550
2023-02-03T04:19:32.338Z,96555
2023-02-03T04:20:41.003Z,96560
2023-02-03T04:21:50.659Z,96563
2023-02-03T04:23:00.364Z,96560
2023-02-03T04:24:08.023Z,96554
2023-02-03T04:25:16.666Z,96559
2023-02-03T04:26:26.335Z,96547
2023-02-03T04:27:34.996Z,96555
2023-02-03T04:28:44.659Z,96563
2023-02-03T04:29:53.347Z,96551
2023-02-03T04:31:03.056Z,96560
2023-02-03T04:32:13.259Z,96562
2023-02-03T04:33:20.933Z,96560
2023-02-03T04:34:29.672Z,96569
2023-02-03T04:35:39.322Z,96563
2023-02-03T04:36:47.985Z,96560
2023-02-03T04:37:56.642Z,96564
2023-02-03T04:39:05.331Z,96564
2023-02-03T04:40:14.028Z,96544
2023-02-03T04:41:23.704Z,96545
2023-02-03T04:42:32.367Z,96540
2023-02-03T04:43:42.044Z,96539
2023-02-03T04:44:51.711Z,96539
2023-02-03T04:46:01.442Z,96545
2023-02-03T04:47:10.054Z,96559
2023-02-03T04:48:19.708Z,96564
2023-02-03T04:49:28.438Z,96572
2023-02-03T04:50:38.074Z,96569
2023-02-03T04:51:47.787Z,96583
2023-02-03T04:52:56.438Z,96590
2023-02-03T04:54:06.111Z,96581
2023-02-03T04:55:15.775Z,96582
2023-02-03T04:56:25.430Z,96583
2023-02-03T04:57:35.156Z,96571
2023-02-03T04:58:42.813Z,96562
2023-02-03T04:59:51.460Z,96566
2023-02-03T05:01:01.213Z,96559
2023-02-03T05:02:09.866Z,96557
2023-02-03T05:03:19.587Z,96566
2023-02-03T05:04:29.199Z,96552
2023-02-03T05:05:37.887Z,96569
2023-02-03T05:06:47.552Z,96566
2023-02-03T05:07:55.211Z,96554
2023-02-03T05:09:03.881Z,96557
2023-02-03T05:10:13.554Z,96556
2023-02-03T05:11:21.203Z,96550
2023-02-03T05:12:30.879Z,96562
2023-02-03T05:13:39.571Z,96559
2023-02-03T05:14:48.241Z,96563
2023-02-03T05:15:57.961Z,96559
2023-02-03T05:17:06.614Z,96578
2023-02-03T05:18:15.263Z,96550
2023-02-03T05:19:24.919Z,96561
2023-02-03T05:20:32.573Z,96560
2023-02-03T05:21:42.281Z,96558
2023-02-03T05:22:51.938Z,96562
2023-02-03T05:24:00.604Z,96574
2023-02-03T05:25:10.288Z,96568
2023-02-03T05:26:16.985Z,96573
2023-02-03T05:27:26.660Z,96562
2023-02-03T05:28:36.351Z,96563
2023-02-03T05:29:44.022Z,96565
2023-02-03T05:30:53.756Z,96553
2023-02-03T05:32:03.506Z,96585
2023-02-03T05:33:12.121Z,96555
2023-02-03T05:34:21.836Z,96554
2023-02-03T05:35:29.512Z,96561
2023-02-03T05:36:38.203Z,96540
2023-02-03T05:37:47.933Z,96542
2023-02-03T05:38:57.585Z,96532
2023-02-03T05:40:06.296Z,96532
2023-02-03T05:41:14.952Z,96533
2023-02-03T05:42:23.631Z,96537
2023-02-03T05:43:33.361Z,96543
2023-02-03T05:44:42.026Z,96533
2023-02-03T05:45:51.767Z,96539
2023-02-03T05:47:01.385Z,96520
2023-02-03T05:48:10.110Z,96499
2023-02-03T05:49:18.774Z,96519
2023-02-03T05:50:27.766Z,96496
2023-02-03T05:51:36.118Z,96514
2023-02-03T05:52:45.806Z,96500
2023-02-03T05:53:55.509Z,96523
2023-02-03T05:55:04.184Z,96514
2023-02-03T05:56:13.887Z,96520
2023-02-03T05:57:23.570Z,96518
2023-02-03T05:58:33.224Z,96517
2023-02-03T05:59:41.965Z,96527
2023-02-03T06:00:50.747Z,96525
2023-02-03T06:02:00.453Z,96549
2023-02-03T06:03:08.188Z,96539
2023-02-03T06:04:17.001Z,96554
2023-02-03T06:05:26.711Z,96543
2023-02-03T06:06:34.450Z,96557
2023-02-03T06:07:44.131Z,96545
2023-02-03T06:08:52.985Z,96559
2023-02-03T06:10:01.650Z,96549
2023-02-03T06:11:12.323Z,96557
2023-02-03T06:12:20.974Z,96552
2023-02-03T06:13:29.676Z,96560
2023-02-03T06:14:39.362Z,96556
2023-02-03T06:15:48.079Z,96559
2023-02-03T06:16:56.773Z,96569
2023-02-03T06:18:04.457Z,96554
2023-02-03T06:19:15.171Z,96548
2023-02-03T06:20:22.947Z,96549
2023-02-03T06:21:30.662Z,96551
2023-02-03T06:22:39.304Z,96556
2023-02-03T06:23:49.060Z,96553
2023-02-03T06:24:56.779Z,96550
2023-02-03T06:26:06.547Z,96560
2023-02-03T06:27:16.169Z,96536
2023-02-03T06:28:24.962Z,96541
2023-02-03T06:29:33.643Z,96542
2023-02-03T06:30:43.449Z,96551
2023-02-03T06:31:53.142Z,96550
2023-02-03T06:33:02.733Z,96590
2023-02-03T06:34:10.409Z,96575
2023-02-03T06:35:19.080Z,96608
2023-02-03T06:36:28.757Z,96565
2023-02-03T06:37:37.421Z,96550
2023-02-03T06:38:46.105Z,96548
2023-02-03T06:39:53.827Z,96540
2023-02-03T06:41:03.561Z,96552
2023-02-03T06:42:12.257Z,96535
2023-02-03T06:43:20.911Z,96567
2023-02-03T06:44:30.607Z,96560
2023-02-03T06:45:40.273Z,96534
2023-02-03T06:46:49.014Z,96561
2023-02-03T06:47:58.834Z,96537
2023-02-03T06:49:08.559Z,96547
2023-02-03T06:50:17.290Z,96547
2023-02-03T06:51:25.940Z,96551
2023-02-03T06:52:34.609Z,96555
2023-02-03T06:53:43.304Z,96562
2023-02-03T06:54:52.986Z,96561
2023-02-03T06:56:02.648Z,96547
2023-02-03T06:57:12.375Z,96560
2023-02-03T06:58:22.136Z,96567
2023-02-03T06:59:30.790Z,96583
2023-02-03T07:00:40.454Z,96578
2023-02-03T07:01:49.179Z,96598
2023-02-03T07:02:57.829Z,96572
2023-02-03T07:04:07.555Z,96574
2023-02-03T07:05:16.220Z,96567
2023-02-03T07:06:25.884Z,96584
2023-02-03T07:07:35.568Z,96561
2023-02-03T07:08:44.255Z,96558
2023-02-03T07:09:52.945Z,96571
2023-02-03T07:11:01.594Z,96577
2023-02-03T07:12:11.273Z,96572
2023-02-03T07:13:20.937Z,96577
2023-02-03T07:14:29.622Z,96557
2023-02-03T07:15:39.393Z,96556
2023-02-03T07:16:49.052Z,96554
2023-02-03T07:17:57.743Z,96556
2023-02-03T07:19:07.415Z,96550
2023-02-03T07:20:17.100Z,96567
2023-02-03T07:21:25.775Z,96555
2023-02-03T07:22:35.447Z,96549
2023-02-03T07:23:44.133Z,96563
2023-02-03T07:24:51.791Z,96572
2023-02-03T07:26:02.521Z,96542
2023-02-03T07:27:10.275Z,96537
2023-02-03T07:28:19.997Z,96548
2023-02-03T07:29:27.629Z,96540
2023-02-03T07:30:37.348Z,96540
2023-02-03T07:31:47.234Z,96533
2023-02-03T07:32:55.815Z,96537
2023-02-03T07:34:04.619Z,96534
2023-02-03T07:35:14.271Z,96527
2023-02-03T07:36:21.935Z,96538
2023-02-03T07:37:31.587Z,96523
2023-02-03T07:38:40.267Z,96524
2023-02-03T07:39:48.941Z,96529
2023-02-03T07:40:58.619Z,96522
2023-02-03T07:42:07.328Z,96515
2023-02-03T07:43:15.970Z,96523
2023-02-03T07:44:25.716Z,96511
2023-02-03T07:45:33.383Z,96531
2023-02-03T07:46:43.115Z,96513
2023-02-03T07:47:52.773Z,96523
2023-02-03T07:49:02.442Z,96520
2023-02-03T07:50:12.156Z,96519
2023-02-03T07:51:20.840Z,96520
2023-02-03T07:52:29.511Z,96519
2023-02-03T07:53:38.229Z,96509
2023-02-03T07:54:46.932Z,96507
2023-02-03T07:55:56.628Z,96493
2023-02-03T07:57:06.293Z,96487
2023-02-03T07:58:15.981Z,96482
2023-02-03T07:59:25.658Z,96491
2023-02-03T08:00:34.335Z,96487
2023-02-03T08:01:44.100Z,96500
2023-02-03T08:02:53.773Z,96496
2023-02-03T08:04:03.400Z,96500
2023-02-03T08:05:12.217Z,96506
2023-02-03T08:06:20.895Z,96506
2023-02-03T08:07:30.938Z,96509
2023-02-03T08:08:40.594Z,96502
2023-02-03T08:09:49.329Z,96510
2023-02-03T08:10:57.973Z,96505
2023-02-03T08:12:08.368Z,96494
2023-02-03T08:13:17.402Z,96501
2023-02-03T08:14:27.310Z,96502
2023-02-03T08:15:35.964Z,96492
2023-02-03T08:16:45.676Z,96493
2023-02-03T08:17:55.399Z,96497
2023-02-03T08:19:04.068Z,96508
2023-02-03T08:20:12.759Z,96533
2023-02-03T08:21:22.415Z,96519
2023-02-03T08:22:33.102Z,96539
2023-02-03T08:23:42.793Z,96542
2023-02-03T08:24:52.520Z,96530
2023-02-03T08:26:02.227Z,96528
2023-02-03T08:27:11.898Z,96519
2023-02-03T08:28:19.593Z,96519
2023-02-03T08:29:28.229Z,96522
2023-02-03T08:30:37.930Z,96545
2023-02-03T08:31:46.692Z,96531
2023-02-03T08:32:56.321Z,96527
2023-02-03T08:34:05.993Z,96534
2023-02-03T08:35:15.723Z,96533
2023-02-03T08:36:25.471Z,96570
2023-02-03T08:37:34.172Z,96549
2023-02-03T08:38:43.839Z,96568
2023-02-03T08:39:52.526Z,96558
2023-02-03T08:41:02.226Z,96546
2023-02-03T08:42:11.923Z,96551
2023-02-03T08:43:20.607Z,96553
2023-02-03T08:44:29.304Z,96549
2023-02-03T08:45:38.015Z,96553
2023-02-03T08:46:46.640Z,96563
2023-02-03T08:47:56.371Z,96553
2023-02-03T08:49:06.060Z,96547
2023-02-03T08:50:14.750Z,96548
2023-02-03T08:51:24.500Z,96511
2023-02-03T08:52:34.239Z,96521
2023-02-03T08:53:43.924Z,96525
2023-02-03T08:54:51.577Z,96515
2023-02-03T08:56:00.288Z,96521
2023-02-03T08:57:10.968Z,96529
2023-02-03T08:58:18.627Z,96524
2023-02-03T08:59:27.337Z,96526
2023-02-03T09:00:37.039Z,96529
2023-02-03T09:01:45.697Z,96555
2023-02-03T09:02:54.356Z,96523
2023-02-03T09:04:03.074Z,96484
2023-02-03T09:05:11.890Z,96529
2023-02-03T09:06:23.452Z,96505
2023-02-03T09:07:30.224Z,96505
2023-02-03T09:08:39.893Z,96513
2023-02-03T09:09:49.550Z,96498
2023-02-03T09:10:59.268Z,96495
2023-02-03T09:12:08.957Z,96516
2023-02-03T09:13:17.644Z,96512
2023-02-03T09:14:27.305Z,96501
2023-02-03T09:15:36.975Z,96520
2023-02-03T09:16:45.723Z,96508
2023-02-03T09:17:55.380Z,96514
2023-02-03T09:19:05.050Z,96497
2023-02-03T09:20:14.778Z,96540
2023-02-03T09:21:33.255Z,96525
2023-02-03T09:22:35.236Z,96518
2023-02-03T09:23:43.932Z,96531
2023-02-03T09:24:53.590Z,96524
2023-02-03T09:26:02.277Z,96506
2023-02-03T09:27:10.913Z,96525
2023-02-03T09:28:20.727Z,96515
2023-02-03T09:29:29.363Z,96506
2023-02-03T09:30:38.067Z,96529
2023-02-03T09:31:46.791Z,96493
2023-02-03T09:32:56.394Z,96514
2023-02-03T09:34:06.105Z,96510
2023-02-03T09:35:14.773Z,96501
2023-02-03T09:36:23.482Z,96511
2023-02-03T09:37:33.163Z,96497
2023-02-03T09:38:42.819Z,96490
2023-02-03T09:39:51.517Z,96494
2023-02-03T09:41:11.092Z,96486
2023-02-03T09:42:10.901Z,96482
2023-02-03T09:43:19.561Z,96492
2023-02-03T09:44:29.240Z,96503
2023-02-03T09:45:39.045Z,96489
2023-02-03T09:46:48.605Z,96479
2023-02-03T09:47:56.301Z,96470
2023-02-03T09:49:05.057Z,96484
2023-02-03T09:50:14.743Z,96469
2023-02-03T09:51:23.469Z,96477
2023-02-03T09:52:33.157Z,96504
2023-02-03T09:53:40.857Z,96492
2023-02-03T09:54:49.495Z,96495
2023-02-03T09:55:59.192Z,96501
2023-02-03T09:57:09.898Z,96496
2023-02-03T09:58:17.575Z,96512
2023-02-03T09:59:27.270Z,96513
2023-02-03T10:00:34.918Z,96482
2023-02-03T10:01:44.626Z,96484
2023-02-03T10:02:54.435Z,96478
2023-02-03T10:04:02.980Z,96493
2023-02-03T10:05:12.730Z,96466
2023-02-03T10:06:21.420Z,96463
2023-02-03T10:07:31.128Z,96473
2023-02-03T10:08:40.864Z,96464
2023-02-03T10:09:49.746Z,96481
2023-02-03T10:10:59.393Z,96495
2023-02-03T10:12:08.072Z,96523
2023-02-03T10:13:17.782Z,96493
2023-02-03T10:14:27.480Z,96492
2023-02-03T10:15:35.138Z,96496
2023-02-03T10:16:44.827Z,96527
2023-02-03T10:17:54.503Z,96502
2023-02-03T10:19:04.209Z,96523
2023-02-03T10:20:11.950Z,96504
2023-02-03T10:21:20.621Z,96491
2023-02-03T10:22:30.298Z,96509
2023-02-03T10:23:39.960Z,96502
2023-02-03T10:24:48.659Z,96511
2023-02-03T10:25:58.442Z,96503
2023-02-03T10:27:08.108Z,96509
2023-02-03T10:28:17.909Z,96506
2023-02-03T10:29:26.436Z,96493
2023-02-03T10:30:35.270Z,96492
2023-02-03T10:31:44.897Z,96480
2023-02-03T10:32:54.515Z,96478
2023-02-03T10:34:02.233Z,96485
2023-02-03T10:35:10.899Z,96487
2023-02-03T10:36:20.558Z,96501
2023-02-03T10:37:30.612Z,96517
2023-02-03T10:38:40.005Z,96468
2023-02-03T10:39:48.670Z,96500
2023-02-03T10:40:58.365Z,96501
2023-02-03T10:42:08.040Z,96478
2023-02-03T10:43:16.717Z,96501
2023-02-03T10:44:25.377Z,96478
2023-02-03T10:45:35.049Z,96468
2023-02-03T10:46:43.799Z,96478
2023-02-03T10:47:53.510Z,96487
2023-02-03T10:49:03.230Z,96523
2023-02-03T10:50:13.016Z,96486
2023-02-03T10:51:22.700Z,96479
2023-02-03T10:52:31.353Z,96479
2023-02-03T10:53:40.001Z,96469
2023-02-03T10:54:49.737Z,96460
2023-02-03T10:55:57.420Z,96482
2023-02-03T10:57:05.123Z,96461
2023-02-03T10:58:14.836Z,96488
2023-02-03T10:59:23.446Z,96485
2023-02-03T11:00:33.134Z,96496
2023-02-03T11:01:41.974Z,96473
2023-02-03T11:02:51.630Z,96473
2023-02-03T11:04:01.306Z,96501
2023-02-03T11:05:08.972Z,96490
2023-02-03T11:06:17.724Z,96487
2023-02-03T11:07:25.353Z,96483
2023-02-03T11:08:34.996Z,96473
2023-02-03T11:09:44.666Z,96491
2023-02-03T11:10:52.339Z,96485
2023-02-03T11:12:02.096Z,96483
2023-02-03T11:13:11.768Z,96468
2023-02-03T11:14:19.485Z,96464
2023-02-03T11:15:29.306Z,96475
2023-02-03T11:16:39.929Z,96492
2023-02-03T11:17:48.567Z,96465
2023-02-03T11:18:58.241Z,96468
2023-02-03T11:20:07.920Z,96479
2023-02-03T11:21:15.590Z,96470
2023-02-03T11:22:24.281Z,96464
2023-02-03T11:23:33.028Z,96480
2023-02-03T11:24:41.723Z,96455
2023-02-03T11:25:51.389Z,96432
2023-02-03T11:27:00.122Z,96452
2023-02-03T11:28:08.808Z,96470
2023-02-03T11:29:18.512Z,96468
2023-02-03T11:30:28.525Z,96515
2023-02-03T11:31:38.116Z,96441
2023-02-03T11:32:47.544Z,96444
2023-02-03T11:33:56.244Z,96453
2023-02-03T11:35:05.984Z,96448
2023-02-03T11:36:14.667Z,96451
2023-02-03T11:37:23.352Z,96435
2023-02-03T11:38:33.029Z,96435
2023-02-03T11:39:40.690Z,96433
2023-02-03T11:40:49.414Z,96428
2023-02-03T11:41:59.093Z,96431
2023-02-03T11:43:08.776Z,96421
2023-02-03T11:44:18.433Z,96435
2023-02-03T11:45:27.113Z,96440
2023-02-03T11:46:37.053Z,96437
2023-02-03T11:47:46.507Z,96436
2023-02-03T11:48:56.136Z,96416
2023-02-03T11:50:05.817Z,96428
2023-02-03T11:51:14.547Z,96440
2023-02-03T11:52:24.289Z,96430
2023-02-03T11:53:35.225Z,96477
2023-02-03T11:54:44.604Z,96417
2023-02-03T11:55:55.261Z,96420
2023-02-03T11:57:04.974Z,96404
2023-02-03T11:58:14.650Z,96400
2023-02-03T11:59:23.314Z,96406
2023-02-03T12:00:32.002Z,96418
2023-02-03T12:01:40.744Z,96429
2023-02-03T12:02:50.442Z,96417
2023-02-03T12:03:59.050Z,96411
2023-02-03T12:05:08.759Z,96416
2023-02-03T12:06:18.493Z,96406
2023-02-03T12:07:27.134Z,96391
2023-02-03T12:08:35.814Z,96399
2023-02-03T12:09:44.507Z,96404
2023-02-03T12:10:53.157Z,96392
2023-02-03T12:12:02.882Z,96403
2023-02-03T12:13:10.542Z,96399
2023-02-03T12:14:19.245Z,96389
2023-02-03T12:15:28.935Z,96393
2023-02-03T12:16:36.730Z,96404
2023-02-03T12:17:45.423Z,96420
2023-02-03T12:18:55.126Z,96397
2023-02-03T12:20:03.759Z,96394
2023-02-03T12:21:12.453Z,96380
2023-02-03T12:22:20.136Z,96398
2023-02-03T12:23:28.817Z,96375
2023-02-03T12:24:38.576Z,96377
2023-02-03T12:25:46.307Z,96388
2023-02-03T12:26:55.010Z,96372
2023-02-03T12:28:03.766Z,96376
2023-02-03T12:29:14.335Z,96371
2023-02-03T12:30:24.002Z,96381
2023-02-03T12:31:32.723Z,96437
2023-02-03T12:32:41.368Z,96372
2023-02-03T12:33:51.138Z,96360
2023-02-03T12:35:00.818Z,96359
2023-02-03T12:36:10.493Z,96368
2023-02-03T12:37:19.149Z,96363
2023-02-03T12:38:28.840Z,96350
2023-02-03T12:39:38.546Z,96337
2023-02-03T12:40:48.225Z,96353
2023-02-03T12:41:54.887Z,96349
2023-02-03T12:43:04.560Z,96337
2023-02-03T12:44:13.296Z,96351
2023-02-03T12:45:23.126Z,96327
2023-02-03T12:46:31.847Z,96344
2023-02-03T12:47:41.535Z,96347
2023-02-03T12:48:52.226Z,96328
2023-02-03T12:49:59.951Z,96333
2023-02-03T12:51:09.604Z,96333
2023-02-03T12:52:19.312Z,96312
2023-02-03T12:53:29.145Z,96308
2023-02-03T12:54:36.704Z,96301
2023-02-03T12:55:46.420Z,96295
2023-02-03T12:56:55.112Z,96289
2023-02-03T12:58:04.829Z,96313
2023-02-03T12:59:13.505Z,96309
2023-02-03T13:00:22.177Z,96309
2023-02-03T13:01:31.952Z,96316
2023-02-03T13:02:41.592Z,96328
2023-02-03T13:03:50.298Z,96312
2023-02-03T13:04:59.933Z,96328
2023-02-03T13:06:09.619Z,96314
2023-02-03T13:07:19.300Z,96314
2023-02-03T13:08:27.964Z,96290
2023-02-03T13:09:37.646Z,96323
2023-02-03T13:10:46.380Z,96303
2023-02-03T13:11:56.056Z,96306
2023-02-03T13:13:04.741Z,96297
2023-02-03T13:14:13.428Z,96328
2023-02-03T13:15:23.126Z,96319
2023-02-03T13:16:31.902Z,96324
2023-02-03T13:17:41.527Z,96328
2023-02-03T13:18:50.300Z,96309
2023-02-03T13:19:58.986Z,96304
2023-02-03T13:21:08.645Z,96316
2023-02-03T13:22:17.362Z,96295
2023-02-03T13:23:26.982Z,96311
2023-02-03T13:24:36.669Z,96297
2023-02-03T13:25:45.316Z,96301
2023-02-03T13:26:55.015Z,96295
2023-02-03T13:28:03.781Z,96317
2023-02-03T13:29:12.345Z,96322
2023-02-03T13:30:21.084Z,96302
2023-02-03T13:31:29.777Z,96289
2023-02-03T13:32:39.399Z,96284
2023-02-03T13:33:48.148Z,96307
2023-02-03T13:34:56.844Z,96295
2023-02-03T13:36:05.535Z,96270
2023-02-03T13:37:14.220Z,96289
2023-02-03T13:38:23.520Z,96297
2023-02-03T13:39:33.194Z,96257
2023-02-03T13:40:42.916Z,96275
2023-02-03T13:41:52.599Z,96267
2023-02-03T13:43:00.277Z,96298
2023-02-03T13:44:08.939Z,96272
2023-02-03T13:45:18.634Z,96261
2023-02-03T13:46:27.416Z,96264
2023-02-03T13:47:36.087Z,96257
2023-02-03T13:48:44.764Z,96269
2023-02-03T13:49:54.421Z,96250
2023-02-03T13:51:04.157Z,96253
2023-02-03T13:52:14.508Z,96252
2023-02-03T13:53:21.550Z,96252
2023-02-03T13:54:31.294Z,96229
2023-02-03T13:55:38.909Z,96240
2023-02-03T13:56:48.610Z,96239
2023-02-03T13:57:57.383Z,96236
2023-02-03T13:59:07.186Z,96242
2023-02-03T14:00:16.912Z,96251
2023-02-03T14:01:25.591Z,96252
2023-02-03T14:02:35.382Z,96235
2023-02-03T14:03:45.148Z,96231
2023-02-03T14:04:54.936Z,96240
2023-02-03T14:06:03.634Z,96238
2023-02-03T14:07:12.401Z,96235
2023-02-03T14:08:22.089Z,96277
2023-02-03T14:09:31.781Z,96246
2023-02-03T14:10:39.480Z,96239
2023-02-03T14:11:49.114Z,96222
2023-02-03T14:12:58.821Z,96228
2023-02-03T14:14:08.561Z,96229
2023-02-03T14:15:17.243Z,96229
2023-02-03T14:16:26.963Z,96203
2023-02-03T14:17:35.617Z,96221
2023-02-03T14:18:44.258Z,96202
2023-02-03T14:19:52.939Z,96200
2023-02-03T14:21:02.599Z,96186
2023-02-03T14:22:12.365Z,96183
2023-02-03T14:23:20.998Z,96198
2023-02-03T14:24:30.700Z,96230
2023-02-03T14:25:40.389Z,96232
2023-02-03T14:26:50.077Z,96230
2023-02-03T14:27:59.916Z,96195
2023-02-03T14:29:08.513Z,96225
2023-02-03T14:30:18.248Z,96227
2023-02-03T14:31:27.986Z,96218
2023-02-03T14:32:36.587Z,96215
2023-02-03T14:33:45.275Z,96208
2023-02-03T14:34:53.960Z,96253
2023-02-03T14:36:03.649Z,96230
2023-02-03T14:37:13.362Z,96219
2023-02-03T14:38:22.031Z,96230
2023-02-03T14:39:29.744Z,96237
2023-02-03T14:40:39.404Z,96216
2023-02-03T14:41:49.081Z,96234
2023-02-03T14:43:08.515Z,96240
2023-02-03T14:44:09.396Z,96223
2023-02-03T14:45:19.135Z,96230
2023-02-03T14:46:27.925Z,96233
2023-02-03T14:47:36.495Z,96194
2023-02-03T14:48:46.176Z,96216
2023-02-03T14:49:55.852Z,96214